Ruskin, Florida
Current Conditions -  °F | °C
As of 9:58 AM on Sunday 23 Nov 2014 (Local Time) from KMCF Reporting Station
Clear Clear  
Wind Chill: 75°   Ceiling: Unl
Heat Index: 75°   Visibility: 10mi
Dew Point: 73°   Wind: 9mph
Humidity: 92%   Direction: 180°S
Pressure: 30.01"   Gusts: NA
Location:  27.72°N, 82.43°W
Report Text: KMCF 231458Z AUTO 18008KT 10SM CLR 24/23 A3001 RMK AO2 SLP165 T02410228 52005
Loading
Personal Weather Stations






























Interactive Weather Map New forecast layout! Learn more

10-Day Weather Forecast

Advertisements
Track Severe Weather on mobile